Terminal Aerodrome Forecast
Issued by NWS

Home | Current Version | Previous Version | Text Only | Print | Product List | Glossary On
Versions: 1 2 3 4 5 6 7 8 9 10 11 12 13 14 15 16 17
797
FTUS41 KILN 211739
TAFLCK
TAF
KLCK 211739Z 2118/2218 35011KT P6SM VCSH OVC008
     FM212100 02011KT P6SM OVC012
     FM220300 03012KT 2SM -SHRA BR OVC012
     FM221600 04009KT P6SM OVC018=

USA.gov is the U.S. government's official web portal to all federal, state and local government web resources and services.